No particular awareness of the weather is required.    There are no Weather-warnings


Meteo18 Weather Cam more information Meteo18 Weather Cam


Thunder radar more information blitzortung!


Rain radar more information rain snow radar


Visit our other weather sites:

Template documentation
and downloads

And another site



Weather Underground History page Text

Daily Summary for March 9, 2018 Units:  English    Metric   Both
« Previous Day
Next Day »
Daily Weekly Monthly Yearly Custom
  High: Low: Average:
Temperature: TemperatureC °F 5.9 °F 11.2 °F
Dew Point: DewpointC °F 2.7 °F 6.7 °F
Humidity: Humidity % 61 % 74 %
Wind Speed: WindSpeedKMH mph 0.0 mph 2.8 mph
Wind Gust: WindSpeedGustKMH mph - -
Wind:- - South
Pressure: PressurehPa in 1003.9 in -
Precipitation: 0.0 in    
Historical Graphs
 
 
Tabular Data for March 9, 2018
Time Temperature Dew Point Pressure Wind Wind Speed Wind Gust Humidity Rainfall Rate (Hourly)
TemperatureC °F DewpointC °F PressurehPa in Calm     Humidity % HourlyPrecipMM in
00:05 6.1 °F 2.7 °F 1008.0 in Calm     79 % 0.0 in
00:11 6.0 °F 2.8 °F 1008.0 in Calm   1.6 mph 80 % 0.0 in
00:17 5.9 °F 2.9 °F 1008.0 in Calm   3.2 mph 81 % 0.0 in
00:23 6.4 °F 2.8 °F 1008.0 in Calm   1.6 mph 78 % 0.0 in
00:29 6.5 °F 2.8 °F 1008.0 in Calm   1.6 mph 77 % 0.0 in
00:35 6.6 °F 2.9 °F 1008.0 in Calm     77 % 0.0 in
00:41 6.7 °F 3.0 °F 1008.0 in Calm     77 % 0.0 in
00:47 6.7 °F 3.0 °F 1007.7 in East 1.4 mph 1.6 mph 77 % 0.0 in
00:53 6.6 °F 2.9 °F 1007.7 in ENE 1.4 mph 1.6 mph 77 % 0.0 in
00:59 6.7 °F 3.0 °F 1007.7 in East 1.4 mph 1.6 mph 77 % 0.0 in
01:05 6.6 °F 3.2 °F 1007.7 in Calm   1.6 mph 79 % 0.0 in
01:11 6.5 °F 3.3 °F 1007.7 in Calm     80 % 0.0 in
01:17 6.4 °F 3.4 °F 1007.7 in Calm     81 % 0.0 in
01:23 6.3 °F 3.3 °F 1008.0 in WNW 1.4 mph 1.6 mph 81 % 0.0 in
01:29 6.2 °F 3.2 °F 1008.0 in Calm   1.6 mph 81 % 0.0 in
01:35 6.3 °F 3.1 °F 1007.7 in Calm     80 % 0.0 in
01:41 6.6 °F 3.2 °F 1007.7 in Calm     79 % 0.0 in
01:47 6.7 °F 3.3 °F 1007.7 in Calm   1.6 mph 79 % 0.0 in
01:53 6.8 °F 3.2 °F 1007.7 in Calm   1.6 mph 78 % 0.0 in
01:59 6.9 °F 3.3 °F 1007.7 in Calm   1.6 mph 78 % 0.0 in
02:05 6.8 °F 3.2 °F 1007.7 in NNE 1.4 mph 1.6 mph 78 % 0.0 in
02:11 6.5 °F 3.1 °F 1007.7 in NNE 1.4 mph 1.6 mph 79 % 0.0 in
02:17 6.4 °F 3.2 °F 1007.3 in Calm     80 % 0.0 in
02:23 6.3 °F 3.1 °F 1007.3 in Calm     80 % 0.0 in
02:29 6.3 °F 3.3 °F 1007.3 in Calm     81 % 0.0 in
02:35 6.2 °F 3.0 °F 1007.3 in Calm     80 % 0.0 in
02:41 6.2 °F 3.4 °F 1007.7 in Calm     82 % 0.0 in
02:47 6.1 °F 3.3 °F 1007.7 in Calm     82 % 0.0 in
02:53 6.3 °F 3.3 °F 1007.7 in Calm     81 % 0.0 in
02:59 6.4 °F 3.4 °F 1007.3 in Calm     81 % 0.0 in
03:05 6.6 °F 3.4 °F 1007.3 in Calm     80 % 0.0 in
03:11 6.6 °F 3.4 °F 1007.3 in Calm     80 % 0.0 in
03:17 6.4 °F 3.2 °F 1007.3 in Calm     80 % 0.0 in
03:23 6.5 °F 3.3 °F 1007.3 in Calm     80 % 0.0 in
03:29 6.8 °F 3.6 °F 1007.7 in Calm     80 % 0.0 in
03:35 6.9 °F 3.7 °F 1007.7 in Calm     80 % 0.0 in
03:41 6.9 °F 3.7 °F 1007.7 in Calm     80 % 0.0 in
03:47 6.9 °F 3.9 °F 1007.7 in Calm     81 % 0.0 in
03:53 6.9 °F 3.9 °F 1007.7 in Calm     81 % 0.0 in
03:59 6.9 °F 3.9 °F 1007.7 in Calm     81 % 0.0 in
04:06 6.8 °F 3.8 °F 1007.3 in Calm     81 % 0.0 in
04:12 6.8 °F 3.8 °F 1007.7 in Calm     81 % 0.0 in
04:18 6.8 °F 3.8 °F 1007.3 in Calm     81 % 0.0 in
04:24 6.7 °F 3.8 °F 1007.7 in Calm     82 % 0.0 in
04:30 6.6 °F 3.7 °F 1007.7 in Calm     82 % 0.0 in
04:36 6.6 °F 3.7 °F 1007.7 in Calm     82 % 0.0 in
04:42 6.5 °F 3.8 °F 1007.7 in Calm     83 % 0.0 in
04:48 6.6 °F 3.9 °F 1007.7 in Calm     83 % 0.0 in
04:54 6.7 °F 4.0 °F 1007.7 in Calm     83 % 0.0 in
05:00 6.8 °F 3.9 °F 1007.7 in Calm     82 % 0.0 in
05:06 6.7 °F 3.8 °F 1007.7 in Calm     82 % 0.0 in
05:12 6.9 °F 4.0 °F 1007.7 in Calm     82 % 0.0 in
05:18 6.9 °F 4.0 °F 1007.7 in Calm     82 % 0.0 in
05:24 7.0 °F 4.3 °F 1007.7 in Calm     83 % 0.0 in
05:30 7.1 °F 4.4 °F 1007.7 in Calm     83 % 0.0 in
05:36 7.1 °F 4.4 °F 1007.3 in Calm     83 % 0.0 in
05:42 7.1 °F 4.4 °F 1007.3 in Calm     83 % 0.0 in
05:49 7.0 °F 4.3 °F 1007.3 in Calm     83 % 0.0 in
05:55 6.9 °F 4.2 °F 1007.3 in Calm     83 % 0.0 in
06:01 7.1 °F 4.4 °F 1007.3 in Calm     83 % 0.0 in
06:07 7.2 °F 4.5 °F 1007.3 in Calm     83 % 0.0 in
06:13 7.3 °F 4.4 °F 1007.3 in Calm     82 % 0.0 in
06:19 7.3 °F 4.4 °F 1007.3 in Calm     82 % 0.0 in
06:25 7.4 °F 4.5 °F 1007.3 in Calm     82 % 0.0 in
06:31 7.4 °F 4.4 °F 1007.3 in Calm     81 % 0.0 in
06:37 7.4 °F 4.4 °F 1007.3 in Calm     81 % 0.0 in
06:43 7.4 °F 4.5 °F 1007.3 in Calm     82 % 0.0 in
06:49 7.4 °F 4.5 °F 1007.3 in Calm     82 % 0.0 in
06:55 7.4 °F 4.7 °F 1007.3 in Calm     83 % 0.0 in
07:01 7.4 °F 4.7 °F 1007.3 in Calm     83 % 0.0 in
07:07 7.3 °F 4.8 °F 1007.3 in Calm     84 % 0.0 in
07:13 7.4 °F 4.9 °F 1007.3 in Calm     84 % 0.0 in
07:19 7.4 °F 4.7 °F 1007.3 in Calm     83 % 0.0 in
07:25 7.4 °F 4.7 °F 1007.3 in Calm     83 % 0.0 in
07:31 7.4 °F 4.7 °F 1007.0 in Calm   1.6 mph 83 % 0.0 in
07:37 7.4 °F 4.7 °F 1007.3 in Calm     83 % 0.0 in
07:43 7.4 °F 4.7 °F 1007.3 in Calm   3.2 mph 83 % 0.0 in
07:49 7.6 °F 4.7 °F 1007.3 in Calm   4.8 mph 82 % 0.0 in
07:55 7.8 °F 4.9 °F 1007.3 in SW 1.4 mph 3.2 mph 82 % 0.0 in
08:01 8.0 °F 5.1 °F 1007.3 in South 3.2 mph 3.2 mph 82 % 0.0 in
08:07 8.1 °F 5.2 °F 1007.3 in SSE 1.4 mph 1.6 mph 82 % 0.0 in
08:14 8.1 °F 5.2 °F 1007.3 in Calm   3.2 mph 82 % 0.0 in
08:20 8.2 °F 5.3 °F 1007.3 in SSW 3.2 mph 3.2 mph 82 % 0.0 in
08:26 8.2 °F 5.3 °F 1007.3 in SSE 1.4 mph 1.6 mph 82 % 0.0 in
08:32 8.3 °F 5.2 °F 1007.3 in SSW 3.2 mph 3.2 mph 81 % 0.0 in
08:38 8.3 °F 5.2 °F 1007.3 in SSW 3.2 mph 3.2 mph 81 % 0.0 in
08:44 8.4 °F 5.2 °F 1007.7 in SSW 1.4 mph 3.2 mph 80 % 0.0 in
08:50 8.5 °F 5.1 °F 1007.7 in SSW 3.2 mph 4.8 mph 79 % 0.0 in
08:56 8.7 °F 5.1 °F 1007.7 in SW 1.4 mph 4.8 mph 78 % 0.0 in
09:02 8.8 °F 5.2 °F 1007.7 in SW 1.4 mph 3.2 mph 78 % 0.0 in
09:08 8.9 °F 5.5 °F 1007.7 in Calm   3.2 mph 79 % 0.0 in
09:14 9.0 °F 5.6 °F 1007.7 in SSW 1.4 mph 1.6 mph 79 % 0.0 in
09:20 9.2 °F 5.9 °F 1007.7 in Calm   1.6 mph 80 % 0.0 in
09:26 9.3 °F 5.7 °F 1007.7 in SSW 1.4 mph 4.8 mph 78 % 0.0 in
09:32 9.6 °F 5.8 °F 1007.7 in SSW 4.7 mph 6.4 mph 77 % 0.0 in
09:38 9.8 °F 5.8 °F 1007.7 in SSE 3.2 mph 8.0 mph 76 % 0.0 in
09:44 10.1 °F 6.1 °F 1007.7 in SSE 4.7 mph 8.0 mph 76 % 0.0 in
09:50 10.3 °F 6.1 °F 1007.7 in SSE 1.4 mph 6.4 mph 75 % 0.0 in
09:56 10.5 °F 6.1 °F 1007.7 in SSE 4.7 mph 9.7 mph 74 % 0.0 in
10:02 10.6 °F 6.2 °F 1007.7 in South 3.2 mph 11.3 mph 74 % 0.0 in
10:08 10.8 °F 6.5 °F 1007.7 in SSE 1.4 mph 6.4 mph 75 % 0.0 in
10:14 11.1 °F 6.4 °F 1007.7 in SSE 1.4 mph 8.0 mph 73 % 0.0 in
10:20 11.3 °F 6.8 °F 1007.7 in South 3.2 mph 6.4 mph 74 % 0.0 in
10:26 11.5 °F 6.4 °F 1007.7 in SSW 7.9 mph 9.7 mph 71 % 0.0 in
10:32 11.7 °F 6.8 °F 1007.7 in SSW 6.4 mph 12.9 mph 72 % 0.0 in
10:38 11.8 °F 6.7 °F 1007.7 in SSE 6.4 mph 9.7 mph 71 % 0.0 in
10:44 11.9 °F 6.6 °F 1007.7 in SSE 14.5 mph 14.5 mph 70 % 0.0 in
10:50 12.0 °F 6.5 °F 1007.7 in SSE 9.7 mph 12.9 mph 69 % 0.0 in
10:56 12.1 °F 6.6 °F 1007.7 in SE 4.7 mph 11.3 mph 69 % 0.0 in
11:02 12.4 °F 7.1 °F 1007.7 in South 3.2 mph 9.7 mph 70 % 0.0 in
11:08 12.7 °F 7.2 °F 1007.7 in SSE 3.2 mph 6.4 mph 69 % 0.0 in
11:14 12.7 °F 6.5 °F 1007.7 in SE 4.7 mph 12.9 mph 66 % 0.0 in
11:20 12.5 °F 6.5 °F 1007.7 in SSW 3.2 mph 14.5 mph 67 % 0.0 in
11:26 12.6 °F 7.1 °F 1007.7 in SSE 4.7 mph 9.7 mph 69 % 0.0 in
11:32 12.7 °F 7.4 °F 1007.7 in SE 3.2 mph 9.7 mph 70 % 0.0 in
11:38 12.9 °F 7.6 °F 1007.7 in SSE 3.2 mph 6.4 mph 70 % 0.0 in
11:44 13.0 °F 6.8 °F 1007.7 in SSE 6.4 mph 11.3 mph 66 % 0.0 in
11:50 13.1 °F 6.7 °F 1007.3 in SSW 11.1 mph 12.9 mph 65 % 0.0 in
11:56 13.3 °F 7.5 °F 1007.3 in South 3.2 mph 11.3 mph 68 % 0.0 in
12:02 13.5 °F 6.4 °F 1007.3 in South 7.9 mph 12.9 mph 62 % 0.0 in
12:08 13.7 °F 7.2 °F 1007.3 in South 6.4 mph 11.3 mph 65 % 0.0 in
12:14 13.8 °F 7.1 °F 1007.0 in SE 3.2 mph 12.9 mph 64 % 0.0 in
12:20 13.8 °F 7.1 °F 1007.0 in SE 11.1 mph 11.3 mph 64 % 0.0 in
12:26 13.9 °F 7.4 °F 1007.0 in SSE 3.2 mph 14.5 mph 65 % 0.0 in
12:32 14.2 °F 7.5 °F 1007.0 in SE 7.9 mph 17.7 mph 64 % 0.0 in
12:38 14.2 °F 7.3 °F 1007.0 in South 4.7 mph 12.9 mph 63 % 0.0 in
12:44 14.1 °F 7.4 °F 1007.0 in South 7.9 mph 12.9 mph 64 % 0.0 in
12:50 14.1 °F 7.6 °F 1007.0 in SE 4.7 mph 11.3 mph 65 % 0.0 in
12:56 14.1 °F 7.8 °F 1007.0 in South 4.7 mph 9.7 mph 66 % 0.0 in
13:02 14.2 °F 7.9 °F 1006.7 in SSE 4.7 mph 11.3 mph 66 % 0.0 in
13:08 14.4 °F 7.7 °F 1006.7 in ESE 4.7 mph 11.3 mph 64 % 0.0 in
13:14 14.4 °F 7.7 °F 1006.7 in South 6.4 mph 12.9 mph 64 % 0.0 in
13:20 14.6 °F 8.3 °F 1006.3 in SSE 4.7 mph 6.4 mph 66 % 0.0 in
13:26 14.7 °F 8.6 °F 1006.3 in South 6.4 mph 8.0 mph 67 % 0.0 in
13:32 14.7 °F 8.0 °F 1006.3 in SE 6.4 mph 8.0 mph 64 % 0.0 in
13:38 14.8 °F 8.3 °F 1006.0 in SSE 4.7 mph 12.9 mph 65 % 0.0 in
13:44 14.9 °F 8.1 °F 1006.0 in South 6.4 mph 11.3 mph 64 % 0.0 in
13:50 15.0 °F 8.0 °F 1006.0 in SSE 4.7 mph 12.9 mph 63 % 0.0 in
13:56 15.0 °F 8.0 °F 1005.6 in SE 7.9 mph 17.7 mph 63 % 0.0 in
14:02 15.2 °F 8.4 °F 1005.6 in East 4.7 mph 11.3 mph 64 % 0.0 in
14:08 15.2 °F 8.0 °F 1005.6 in SE 4.7 mph 12.9 mph 62 % 0.0 in
14:14 15.2 °F 8.2 °F 1005.6 in ESE 9.7 mph 12.9 mph 63 % 0.0 in
14:20 15.2 °F 8.0 °F 1005.6 in SSE 7.9 mph 12.9 mph 62 % 0.0 in
14:26 15.2 °F 8.7 °F 1005.6 in SE 6.4 mph 9.7 mph 65 % 0.0 in
14:32 15.2 °F 8.2 °F 1005.6 in SSE 9.7 mph 12.9 mph 63 % 0.0 in
14:38 15.3 °F 8.5 °F 1005.6 in SE 3.2 mph 14.5 mph 64 % 0.0 in
14:44 15.4 °F 8.6 °F 1005.3 in SE 9.7 mph 11.3 mph 64 % 0.0 in
14:50 15.6 °F 8.6 °F 1005.3 in SSE 9.7 mph 9.7 mph 63 % 0.0 in
14:56 15.8 °F 8.8 °F 1005.3 in SE 4.7 mph 9.7 mph 63 % 0.0 in
15:02 16.1 °F 9.1 °F 1005.0 in SSE 6.4 mph 11.3 mph 63 % 0.0 in
15:08 16.2 °F 8.7 °F 1005.0 in SSE 6.4 mph 14.5 mph 61 % 0.0 in
15:14 16.3 °F 9.0 °F 1005.0 in SE 7.9 mph 12.9 mph 62 % 0.0 in
15:20 16.3 °F 9.0 °F 1005.0 in SSW 3.2 mph 11.3 mph 62 % 0.0 in
15:26 16.7 °F 9.9 °F 1005.0 in SE 4.7 mph 12.9 mph 64 % 0.0 in
15:32 16.7 °F 9.6 °F 1005.0 in SW 4.7 mph 11.3 mph 63 % 0.0 in
15:38 16.7 °F 9.4 °F 1005.0 in SSE 6.4 mph 8.0 mph 62 % 0.0 in
15:44 16.7 °F 9.6 °F 1004.6 in SSW 4.7 mph 16.1 mph 63 % 0.0 in
15:50 16.7 °F 9.1 °F 1004.6 in SSE 6.4 mph 17.7 mph 61 % 0.0 in
15:56 16.7 °F 9.4 °F 1004.6 in South 9.7 mph 16.1 mph 62 % 0.0 in
16:03 16.6 °F 9.0 °F 1005.0 in SSW 13.0 mph 19.3 mph 61 % 0.0 in
16:09 16.6 °F 9.3 °F 1005.0 in SW 7.9 mph 11.3 mph 62 % 0.0 in
16:15 16.5 °F 9.4 °F 1005.0 in SSW 7.9 mph 12.9 mph 63 % 0.0 in
16:21 16.4 °F 9.8 °F 1004.6 in South 7.9 mph 12.9 mph 65 % 0.0 in
16:27 16.4 °F 9.3 °F 1004.6 in SSW 11.1 mph 16.1 mph 63 % 0.0 in
16:33 16.3 °F 9.9 °F 1004.6 in SSW 7.9 mph 8.0 mph 66 % 0.0 in
16:39 16.1 °F 9.7 °F 1004.6 in SW 6.4 mph 9.7 mph 66 % 0.0 in
16:45 15.9 °F 9.8 °F 1004.6 in SSW 3.2 mph 9.7 mph 67 % 0.0 in
16:51 15.9 °F 9.8 °F 1004.6 in SSW 9.7 mph 9.7 mph 67 % 0.0 in
16:57 15.9 °F 10.0 °F 1004.6 in SW 7.9 mph 11.3 mph 68 % 0.0 in
17:03 15.8 °F 10.1 °F 1004.6 in SSW 7.9 mph 12.9 mph 69 % 0.0 in
17:09 15.7 °F 10.0 °F 1004.6 in SW 7.9 mph 11.3 mph 69 % 0.0 in
17:15 15.8 °F 9.9 °F 1004.6 in SW 11.1 mph 14.5 mph 68 % 0.0 in
17:21 15.8 °F 9.7 °F 1004.6 in SW 7.9 mph 16.1 mph 67 % 0.0 in
17:27 15.7 °F 9.6 °F 1004.6 in SW 7.9 mph 12.9 mph 67 % 0.0 in
17:33 15.6 °F 9.5 °F 1004.6 in SSW 7.9 mph 12.9 mph 67 % 0.0 in
17:39 15.4 °F 9.7 °F 1004.6 in SSW 6.4 mph 8.0 mph 69 % 0.0 in
17:45 15.2 °F 9.8 °F 1004.6 in SW 6.4 mph 8.0 mph 70 % 0.0 in
17:51 15.1 °F 9.5 °F 1004.6 in WSW 6.4 mph 6.4 mph 69 % 0.0 in
17:57 15.2 °F 9.3 °F 1004.6 in SSW 3.2 mph 6.4 mph 68 % 0.0 in
18:03 15.2 °F 9.3 °F 1004.6 in SW 3.2 mph 6.4 mph 68 % 0.0 in
18:09 15.2 °F 9.3 °F 1004.6 in SSW 3.2 mph 6.4 mph 68 % 0.0 in
18:15 15.2 °F 9.3 °F 1004.6 in WSW 4.7 mph 4.8 mph 68 % 0.0 in
18:21 15.2 °F 9.1 °F 1004.6 in SSW 1.4 mph 3.2 mph 67 % 0.0 in
18:27 15.3 °F 9.2 °F 1004.6 in SW 1.4 mph 3.2 mph 67 % 0.0 in
18:33 15.1 °F 9.5 °F 1004.6 in SSW 1.4 mph 3.2 mph 69 % 0.0 in
18:39 14.7 °F 9.3 °F 1004.6 in SSW 1.4 mph 6.4 mph 70 % 0.0 in
18:45 14.6 °F 9.4 °F 1004.6 in Calm   3.2 mph 71 % 0.0 in
18:51 14.4 °F 9.4 °F 1004.6 in Calm     72 % 0.0 in
18:57 14.2 °F 9.4 °F 1004.6 in SW 1.4 mph 1.6 mph 73 % 0.0 in
19:03 14.2 °F 9.4 °F 1004.6 in Calm     73 % 0.0 in
19:09 14.3 °F 9.3 °F 1004.6 in Calm     72 % 0.0 in
19:15 14.2 °F 9.2 °F 1004.6 in Calm     72 % 0.0 in
19:21 14.2 °F 9.4 °F 1004.6 in Calm     73 % 0.0 in
19:27 14.2 °F 9.4 °F 1004.3 in Calm     73 % 0.0 in
19:33 14.1 °F 9.3 °F 1004.3 in Calm     73 % 0.0 in
19:39 14.1 °F 9.3 °F 1004.3 in Calm   1.6 mph 73 % 0.0 in
19:45 14.1 °F 9.3 °F 1004.3 in Calm   1.6 mph 73 % 0.0 in
19:51 14.1 °F 9.1 °F 1004.3 in SW 1.4 mph 1.6 mph 72 % 0.0 in
19:57 14.1 °F 9.1 °F 1004.3 in Calm     72 % 0.0 in
20:03 14.0 °F 9.2 °F 1004.3 in Calm     73 % 0.0 in
20:09 13.8 °F 9.2 °F 1004.3 in Calm   1.6 mph 74 % 0.0 in
20:15 13.9 °F 9.3 °F 1004.3 in Calm     74 % 0.0 in
20:21 13.9 °F 8.9 °F 1004.3 in Calm   3.2 mph 72 % 0.0 in
20:27 14.0 °F 9.0 °F 1004.3 in Calm     72 % 0.0 in
20:33 13.9 °F 8.9 °F 1004.3 in Calm     72 % 0.0 in
20:39 13.7 °F 9.1 °F 1004.3 in Calm     74 % 0.0 in
20:45 13.7 °F 9.1 °F 1004.3 in SSE 1.4 mph 8.0 mph 74 % 0.0 in
20:51 13.8 °F 9.0 °F 1004.3 in Calm   1.6 mph 73 % 0.0 in
20:57 13.6 °F 9.1 °F 1004.3 in Calm   1.6 mph 74 % 0.0 in
21:03 13.4 °F 9.1 °F 1004.3 in Calm   1.6 mph 75 % 0.0 in
21:09 13.2 °F 9.1 °F 1004.3 in Calm     76 % 0.0 in
21:15 13.1 °F 9.0 °F 1004.3 in Calm     76 % 0.0 in
21:21 12.9 °F 9.0 °F 1004.3 in Calm   1.6 mph 77 % 0.0 in
21:27 12.9 °F 9.0 °F 1004.3 in Calm   6.4 mph 77 % 0.0 in
21:33 12.8 °F 9.1 °F 1004.3 in SW 4.7 mph 4.8 mph 78 % 0.0 in
21:39 12.9 °F 9.0 °F 1004.3 in SSE 1.4 mph 8.0 mph 77 % 0.0 in
21:45 13.2 °F 8.9 °F 1004.3 in South 4.7 mph 12.9 mph 75 % 0.0 in
21:51 13.3 °F 8.8 °F 1004.3 in SSW 3.2 mph 9.7 mph 74 % 0.0 in
21:57 13.3 °F 8.6 °F 1004.3 in SSE 3.2 mph 11.3 mph 73 % 0.0 in
22:03 13.4 °F 8.5 °F 1004.3 in South 7.9 mph 11.3 mph 72 % 0.0 in
22:09 13.5 °F 8.6 °F 1004.3 in SE 3.2 mph 11.3 mph 72 % 0.0 in
22:15 13.5 °F 8.3 °F 1004.3 in SE 4.7 mph 12.9 mph 71 % 0.0 in
22:21 13.4 °F 8.2 °F 1004.3 in SSE 6.4 mph 8.0 mph 71 % 0.0 in
22:27 13.3 °F 8.4 °F 1004.3 in South 1.4 mph 8.0 mph 72 % 0.0 in
22:33 13.2 °F 8.3 °F 1004.3 in South 4.7 mph 8.0 mph 72 % 0.0 in
22:39 13.1 °F 8.2 °F 1004.3 in SSE 3.2 mph 11.3 mph 72 % 0.0 in
22:45 13.0 °F 8.3 °F 1004.3 in SE 9.7 mph 12.9 mph 73 % 0.0 in
22:51 12.9 °F 8.2 °F 1004.3 in South 3.2 mph 8.0 mph 73 % 0.0 in
22:58 12.8 °F 8.1 °F 1004.3 in SSW 4.7 mph 9.7 mph 73 % 0.0 in
23:04 12.7 °F 8.2 °F 1004.3 in SE 7.9 mph 8.0 mph 74 % 0.0 in
23:10 12.7 °F 8.2 °F 1004.3 in SSW 1.4 mph 6.4 mph 74 % 0.0 in
23:16 12.7 °F 8.2 °F 1004.3 in South 3.2 mph 8.0 mph 74 % 0.0 in
23:22 12.6 °F 8.3 °F 1004.3 in South 4.7 mph 6.4 mph 75 % 0.0 in
23:28 12.5 °F 8.2 °F 1004.3 in SSE 3.2 mph 4.8 mph 75 % 0.0 in
23:34 12.4 °F 8.1 °F 1004.3 in SW 3.2 mph 4.8 mph 75 % 0.0 in
23:40 12.2 °F 8.1 °F 1004.3 in South 1.4 mph 3.2 mph 76 % 0.0 in
23:46 12.2 °F 8.1 °F 1004.3 in SSE 1.4 mph 3.2 mph 76 % 0.0 in
23:52 12.2 °F 8.1 °F 1004.3 in SSW 1.4 mph 3.2 mph 76 % 0.0 in
23:58 12.2 °F 8.1 °F 1003.9 in Calm   3.2 mph 76 % 0.0 in
Meteo18
Compliments of Weather Underground - 4 mb

Script developed by  Jim McMurry - jmcmurry@mwt.net Adapted for the template by  Wim van der Kuil - Leuven-Template.eu

You find our weather info also at:

European Weather Network

Weather Underground

Equipment we use:

Weather-station
Davis Vue

Weather-program
Meteobridge

Weather-server
Raspberry PI 2 B+

Provider
1 and 1

Davis Vue

Meteobridge

Raspberry PI 2 B+

1 and 1